Time;durP1;ratioP1;P1;durP2;ratioP2;P2;SDS_P1;SDS_P2;PMS_P1;PMS_P2;Temp;Humidity;BMP_temperature;BMP_pressure;BME280_temperature;BME280_humidity;BME280_pressure;Samples;Min_cycle;Max_cycle;Signal;HPM_P1;HPM_P2
2021/03/07 00:01:17;;;;;;;3.37;1.90;;;;;;;-1.80;64.80;101384.89;1739046;82;21185;-66
2021/03/07 00:03:51;;;;;;;3.42;2.00;;;;;;;-1.82;65.06;101384.52;1737257;82;21165;-66
2021/03/07 00:06:24;;;;;;;3.77;2.00;;;;;;;-1.84;65.23;101383.70;1738828;82;21268;-67
2021/03/07 00:08:57;;;;;;;4.50;2.50;;;;;;;-1.92;65.27;101382.56;1737358;82;21189;-67
2021/03/07 00:11:30;;;;;;;19.67;8.57;;;;;;;-1.92;65.27;101382.56;1738833;82;21628;-66
2021/03/07 00:14:03;;;;;;;8.20;4.12;;;;;;;-1.97;65.20;101380.96;1737281;82;21300;-65
2021/03/07 00:16:36;;;;;;;10.70;3.20;;;;;;;-2.05;65.20;101378.53;1739029;82;21193;-65
2021/03/07 00:19:11;;;;;;;7.78;3.80;;;;;;;-2.11;65.06;101382.52;1737462;82;21843;-64
2021/03/07 00:21:44;;;;;;;5.97;2.63;;;;;;;-2.19;65.14;101377.53;1738935;82;21776;-64
2021/03/07 00:24:17;;;;;;;4.63;2.30;;;;;;;-2.28;65.21;101375.14;1737263;82;22015;-64
2021/03/07 00:26:50;;;;;;;;;;;;;;;-2.34;65.53;101378.27;1741341;82;21683;-65
2021/03/07 00:29:22;;;;;;;7.92;2.67;;;;;;;-2.36;65.89;101379.98;1737147;82;20563;-65
2021/03/07 00:31:56;;;;;;;6.42;3.25;;;;;;;-2.38;66.17;101365.06;1738912;82;21206;-65
2021/03/07 00:34:29;;;;;;;7.30;2.42;;;;;;;-2.39;66.34;101369.34;1737260;82;21181;-66
2021/03/07 00:37:02;;;;;;;6.15;2.70;;;;;;;-2.38;66.61;101364.64;1738893;82;21700;-65
2021/03/07 00:39:35;;;;;;;6.63;3.10;;;;;;;-2.36;66.83;101362.03;1737576;82;21189;-65
2021/03/07 00:42:09;;;;;;;8.70;2.55;;;;;;;-2.35;66.95;101354.33;1739143;82;21623;-66
2021/03/07 00:44:42;;;;;;;12.47;5.05;;;;;;;-2.34;67.01;101356.00;1737273;82;21186;-66
2021/03/07 00:47:16;;;;;;;12.47;4.33;;;;;;;-2.35;67.04;101356.89;1738846;82;21256;-66
2021/03/07 00:49:49;;;;;;;6.20;2.60;;;;;;;-2.36;67.01;101353.06;1737072;82;21324;-65
2021/03/07 00:52:22;;;;;;;7.03;3.03;;;;;;;-2.35;67.17;101358.61;1738864;82;21158;-66
2021/03/07 00:54:55;;;;;;;;;;;;;;;-2.35;67.19;101360.74;1740882;82;21719;-66
2021/03/07 00:57:28;;;;;;;16.05;5.78;;;;;;;-2.33;67.21;101354.30;1707474;84;20264;-66
2021/03/07 01:00:01;;;;;;;5.40;3.20;;;;;;;-2.34;67.21;101360.31;1705985;84;21288;-66
2021/03/07 01:02:36;;;;;;;7.65;4.17;;;;;;;-2.37;67.14;101349.67;1707162;84;21795;-66
2021/03/07 01:05:10;;;;;;;7.62;3.47;;;;;;;-2.38;67.11;101361.22;1705867;84;21224;-66
2021/03/07 01:07:43;;;;;;;3.80;2.40;;;;;;;-2.39;67.19;101361.65;1707161;84;21161;-66
2021/03/07 01:10:20;;;;;;;4.42;2.80;;;;;;;-2.38;67.32;101365.92;1705836;84;21340;-66
2021/03/07 01:12:53;;;;;;;4.78;2.40;;;;;;;-2.35;67.32;101371.00;1707054;84;21269;-66
2021/03/07 01:15:31;;;;;;;6.25;2.62;;;;;;;-2.27;67.58;101367.02;1707272;84;21229;-67
2021/03/07 01:18:05;;;;;;;10.28;4.10;;;;;;;-2.12;67.94;101367.55;1707223;84;21831;-64
2021/03/07 01:20:40;;;;;;;4.25;2.33;;;;;;;-1.92;68.17;101365.03;1707400;84;21296;-65
2021/03/07 01:23:14;;;;;;;5.22;2.02;;;;;;;-1.70;68.26;101360.73;1707197;84;21180;-66
2021/03/07 01:25:48;;;;;;;4.70;2.40;;;;;;;-1.48;68.13;101367.07;1707093;84;21146;-63
2021/03/07 01:28:22;;;;;;;7.53;2.60;;;;;;;-1.28;68.12;101364.50;1707261;84;21272;-64
2021/03/07 01:30:55;;;;;;;5.47;2.70;;;;;;;-1.10;67.90;101362.81;1707687;84;21185;-64
2021/03/07 01:33:29;;;;;;;11.38;2.83;;;;;;;-0.97;67.82;101370.62;1707455;84;21264;-64
2021/03/07 01:36:05;;;;;;;4.42;2.10;;;;;;;-0.84;67.81;101374.16;1767257;81;21256;-64
2021/03/07 01:38:40;;;;;;;4.95;2.12;;;;;;;-0.71;67.72;101372.96;1767080;81;21288;-65
2021/03/07 01:41:13;;;;;;;4.33;2.12;;;;;;;-0.61;67.78;101371.01;1767614;81;21114;-65
2021/03/07 01:43:46;;;;;;;5.60;2.97;;;;;;;-0.50;67.82;101373.32;1769718;81;21172;-66
2021/03/07 01:46:20;;;;;;;5.53;2.77;;;;;;;-0.44;67.74;101364.99;1769836;81;21273;-66
2021/03/07 01:48:53;;;;;;;5.58;2.60;;;;;;;-0.39;67.66;101359.29;1769244;81;21153;-66
2021/03/07 01:51:26;;;;;;;8.70;2.95;;;;;;;-0.34;67.46;101357.88;1768597;81;21292;-68
2021/03/07 01:53:59;;;;;;;8.33;3.30;;;;;;;-0.35;67.24;101354.89;1769728;81;21328;-66
2021/03/07 01:56:32;;;;;;;10.00;4.63;;;;;;;-0.41;66.94;101358.48;1774207;79;21818;-66
2021/03/07 01:59:05;;;;;;;9.13;3.93;;;;;;;-0.48;66.78;101363.83;1799702;79;21217;-67
2021/03/07 02:01:38;;;;;;;6.60;3.73;;;;;;;-0.56;66.69;101365.74;1806515;79;21690;-66
2021/03/07 02:04:13;;;;;;;10.70;4.35;;;;;;;-0.69;66.44;101367.34;1806346;79;21787;-67
2021/03/07 02:06:46;;;;;;;8.90;4.03;;;;;;;-0.81;66.44;101362.50;1806928;79;21153;-67
2021/03/07 02:09:19;;;;;;;11.12;6.35;;;;;;;-0.90;66.45;101369.16;1806128;79;21251;-67
2021/03/07 02:11:52;;;;;;;11.10;5.12;;;;;;;-1.01;66.24;101370.30;1759872;81;21268;-67
2021/03/07 02:14:26;;;;;;;15.67;5.17;;;;;;;-1.18;66.09;101365.55;1769080;81;21165;-67
2021/03/07 02:16:59;;;;;;;16.93;6.90;;;;;;;-1.31;66.21;101370.55;1743414;82;21672;-67
2021/03/07 02:19:36;;;;;;;8.90;4.33;;;;;;;-1.40;66.34;101381.03;1768893;81;21162;-67
2021/03/07 02:22:12;;;;;;;11.10;5.15;;;;;;;-1.49;66.27;101382.52;1798674;79;21257;-66
2021/03/07 02:24:45;;;;;;;10.15;3.95;;;;;;;-1.60;66.34;101385.77;1784477;79;21311;-66
2021/03/07 02:27:18;;;;;;;11.00;4.90;;;;;;;-1.70;66.36;101387.69;1769930;81;21111;-66
2021/03/07 02:29:51;;;;;;;10.50;5.73;;;;;;;-1.73;66.54;101395.44;1740293;82;21284;-65
2021/03/07 02:32:25;;;;;;;10.05;5.62;;;;;;;-1.73;66.57;101394.59;1776321;81;21276;-65
2021/03/07 02:35:09;;;;;;;16.95;7.08;;;;;;;-1.79;66.55;101396.83;1761779;81;21756;-66
2021/03/07 02:37:45;;;;;;;35.43;12.65;;;;;;;-1.87;66.50;101395.31;1735533;83;21122;-67
2021/03/07 02:40:21;;;;;;;77.47;22.05;;;;;;;-2.01;66.63;101394.73;1806250;79;21276;-67
2021/03/07 02:42:57;;;;;;;66.15;19.27;;;;;;;-2.10;66.83;101392.73;1767115;81;21241;-66
2021/03/07 02:45:30;;;;;;;68.72;19.80;;;;;;;-2.19;67.03;101394.20;1724189;82;21312;-66
2021/03/07 02:48:04;;;;;;;46.67;13.83;;;;;;;-2.22;67.25;101394.25;1740399;82;21229;-66
2021/03/07 02:50:37;;;;;;;35.92;11.28;;;;;;;-2.27;67.23;101397.33;1737779;82;21269;-66
2021/03/07 02:53:14;;;;;;;33.63;12.10;;;;;;;-2.35;67.43;101388.95;1805336;79;21153;-66
2021/03/07 02:55:49;;;;;;;29.20;8.70;;;;;;;-2.36;67.55;101388.53;1805853;79;21319;-68
2021/03/07 02:58:22;;;;;;;47.03;16.65;;;;;;;-2.39;67.61;101382.16;1806218;79;21134;-68
2021/03/07 03:00:59;;;;;;;33.80;12.00;;;;;;;-2.41;67.77;101378.78;1805378;79;21157;-68
2021/03/07 03:03:35;;;;;;;36.45;12.45;;;;;;;-2.43;67.76;101375.84;1779242;80;21137;-68
2021/03/07 03:06:09;;;;;;;25.05;9.85;;;;;;;-2.49;67.78;101372.97;1778809;80;21314;-68
2021/03/07 03:08:42;;;;;;;;;;;;;;;-2.57;67.67;101372.25;1737217;81;21233;-68
2021/03/07 03:11:15;;;;;;;19.62;6.45;;;;;;;-2.65;67.66;101380.49;1767565;81;20150;-68
2021/03/07 03:13:53;;;;;;;14.78;6.05;;;;;;;-2.77;68.10;101377.70;1770778;81;21164;-70
2021/03/07 03:16:27;;;;;;;19.07;6.58;;;;;;;-2.78;68.36;101369.63;1769246;81;21688;-65
2021/03/07 03:19:00;;;;;;;16.15;5.42;;;;;;;-2.72;68.51;101372.50;1743561;82;21276;-68
2021/03/07 03:21:33;;;;;;;13.05;5.97;;;;;;;-2.72;68.38;101363.10;1776140;81;21227;-67
2021/03/07 03:24:08;;;;;;;8.60;4.40;;;;;;;-2.73;68.71;101360.58;1745215;82;21153;-66
2021/03/07 03:26:42;;;;;;;10.03;4.47;;;;;;;-2.73;68.71;101360.58;1716041;82;22126;-66
2021/03/07 03:29:15;;;;;;;10.18;4.87;;;;;;;-2.75;68.44;101355.91;1738991;82;21165;-67
2021/03/07 03:31:47;;;;;;;8.48;4.25;;;;;;;-2.80;68.36;101359.84;1738313;82;21197;-66
2021/03/07 03:34:21;;;;;;;10.23;4.45;;;;;;;-2.86;68.48;101357.36;1738995;82;21135;-67
2021/03/07 03:36:54;;;;;;;8.70;4.25;;;;;;;-2.85;68.60;101361.63;1738566;82;21193;-66
2021/03/07 03:39:29;;;;;;;9.73;3.90;;;;;;;-2.85;68.55;101353.94;1738946;82;21157;-66
2021/03/07 03:42:05;;;;;;;13.30;5.25;;;;;;;-2.86;68.57;101353.95;1737894;82;21340;-66
2021/03/07 03:44:40;;;;;;;13.48;5.33;;;;;;;-2.91;68.53;101348.05;1738877;82;21169;-66
2021/03/07 03:47:14;;;;;;;8.30;4.25;;;;;;;-2.96;68.58;101351.97;1738389;82;21197;-67
2021/03/07 03:50:00;;;;;;;9.25;5.37;;;;;;;-3.00;68.66;101341.38;1738853;82;21149;-66
2021/03/07 03:52:38;;;;;;;6.05;3.55;;;;;;;-3.01;68.82;101352.94;1737739;82;21276;-66
2021/03/07 03:55:16;;;;;;;9.83;3.55;;;;;;;-2.98;68.89;101351.58;1738993;82;21194;-67
2021/03/07 03:57:51;;;;;;;9.83;3.70;;;;;;;-2.95;68.91;101352.39;1737874;82;21723;-66
2021/03/07 04:00:26;;;;;;;7.12;3.22;;;;;;;-2.94;68.87;101343.81;1738877;82;21149;-67
2021/03/07 04:02:59;;;;;;;10.13;4.80;;;;;;;-2.92;68.84;101349.80;1741187;82;21284;-66
2021/03/07 04:05:33;;;;;;;10.72;5.30;;;;;;;-2.86;68.92;101353.95;1744814;82;21137;-67
2021/03/07 04:08:07;;;;;;;9.93;4.75;;;;;;;-2.75;68.82;101359.76;1743813;82;21173;-67
2021/03/07 04:10:42;;;;;;;9.78;4.67;;;;;;;-2.58;68.79;101363.31;1744718;82;21198;-67
2021/03/07 04:13:20;;;;;;;8.93;4.22;;;;;;;-2.39;68.49;101362.11;1743727;82;21803;-67
2021/03/07 04:15:56;;;;;;;9.93;5.08;;;;;;;-2.26;68.10;101358.42;1744784;82;21276;-67
2021/03/07 04:18:31;;;;;;;7.83;3.90;;;;;;;-2.14;67.72;101368.45;1743621;82;21334;-67
2021/03/07 04:21:05;;;;;;;8.23;3.50;;;;;;;-1.96;67.51;101365.55;1713923;82;21145;-67
2021/03/07 04:23:38;;;;;;;8.03;4.03;;;;;;;-1.73;67.19;101359.93;1743537;82;21295;-67
2021/03/07 04:26:11;;;;;;;9.50;3.37;;;;;;;-1.41;66.79;101360.10;1744946;82;21157;-67
2021/03/07 04:28:44;;;;;;;9.93;4.40;;;;;;;-0.99;65.98;101360.81;1743562;82;21319;-68
2021/03/07 04:31:17;;;;;;;11.68;4.42;;;;;;;-0.60;65.12;101361.14;1745089;82;21300;-68
2021/03/07 04:33:51;;;;;;;7.80;3.98;;;;;;;-0.24;64.12;101356.28;1743729;82;21815;-67
2021/03/07 04:36:24;;;;;;;7.28;3.75;;;;;;;0.22;63.16;101349.84;1745064;82;21161;-69
2021/03/07 04:38:57;;;;;;;8.45;3.75;;;;;;;0.81;62.12;101353.23;1743708;82;21292;-68
2021/03/07 04:41:30;;;;;;;7.87;3.62;;;;;;;1.45;60.91;101339.91;1744858;82;21259;-69
2021/03/07 04:44:04;;;;;;;7.47;4.23;;;;;;;2.11;59.04;101334.09;1743842;82;21883;-69
2021/03/07 04:46:37;;;;;;;6.90;3.67;;;;;;;2.68;57.77;101334.46;1744777;82;21189;-70
2021/03/07 04:49:10;;;;;;;6.17;3.72;;;;;;;3.22;56.15;101339.17;1712567;82;21296;-68
2021/03/07 04:51:44;;;;;;;7.00;3.60;;;;;;;3.63;54.66;101330.94;1743645;82;21850;-71
2021/03/07 04:54:17;;;;;;;6.57;3.80;;;;;;;4.08;53.33;101336.69;1743972;82;21291;-70
2021/03/07 04:56:50;;;;;;;5.95;3.87;;;;;;;4.36;52.28;101335.45;1713629;82;21280;-68
2021/03/07 04:59:23;;;;;;;7.55;4.30;;;;;;;4.54;51.15;101326.80;1743789;82;21284;-67
2021/03/07 05:01:57;;;;;;;11.40;4.00;;;;;;;4.90;50.58;101328.09;1744839;82;21146;-68
2021/03/07 05:04:30;;;;;;;9.18;4.80;;;;;;;5.25;49.21;101325.45;1735068;82;21275;-65
2021/03/07 05:07:04;;;;;;;9.10;4.55;;;;;;;5.51;48.24;101324.63;1734745;83;21158;-68
2021/03/07 05:09:37;;;;;;;7.77;4.37;;;;;;;5.86;47.78;101318.02;1733348;83;21288;-68
2021/03/07 05:12:11;;;;;;;6.17;3.83;;;;;;;6.30;46.91;101329.96;1734846;83;21166;-64
2021/03/07 05:14:46;;;;;;;6.75;3.60;;;;;;;6.70;46.08;101328.15;1730293;83;21919;-66
2021/03/07 05:17:19;;;;;;;12.00;4.60;;;;;;;7.16;45.22;101329.45;1734530;83;21261;-69
2021/03/07 05:19:54;;;;;;;9.68;5.00;;;;;;;7.62;44.74;101328.42;1733270;83;21425;-70
2021/03/07 05:22:26;;;;;;;8.80;4.62;;;;;;;8.17;44.62;101325.09;1734391;83;21229;-64
2021/03/07 05:25:00;;;;;;;7.93;4.90;;;;;;;8.58;43.19;101328.11;1712673;83;21381;-68
2021/03/07 05:27:33;;;;;;;8.80;5.17;;;;;;;8.89;42.78;101330.91;1734732;83;21312;-69
2021/03/07 05:30:08;;;;;;;9.05;4.85;;;;;;;9.21;43.13;101334.87;1733333;83;21800;-67
2021/03/07 05:32:41;;;;;;;9.18;5.05;;;;;;;9.69;43.00;101333.84;1734172;83;21269;-69
2021/03/07 05:35:14;;;;;;;10.30;5.53;;;;;;;10.08;42.05;101329.77;1733151;83;21292;-66
2021/03/07 05:37:47;;;;;;;8.93;5.20;;;;;;;10.30;40.14;101335.22;1734638;83;21198;-66
2021/03/07 05:40:20;;;;;;;8.30;5.33;;;;;;;10.47;40.01;101334.86;1712767;83;21994;-69
2021/03/07 05:42:53;;;;;;;5.73;3.67;;;;;;;10.79;39.39;101337.80;1734876;83;21305;-67
2021/03/07 05:45:31;;;;;;;7.12;4.05;;;;;;;11.10;38.13;101337.23;1733092;83;21296;-66
2021/03/07 05:48:05;;;;;;;6.25;3.95;;;;;;;11.39;37.39;101340.31;1734494;83;21145;-68
2021/03/07 05:50:38;;;;;;;8.25;5.10;;;;;;;11.70;36.85;101333.11;1732961;83;21273;-68
2021/03/07 05:53:12;;;;;;;5.20;3.40;;;;;;;11.92;36.00;101325.73;1734420;83;21292;-69
2021/03/07 05:55:45;;;;;;;;;;;;;;;12.22;35.09;101335.19;1715089;83;21197;-67
2021/03/07 05:58:18;;;;;;;5.97;3.47;;;;;;;12.51;34.97;101332.88;1734349;83;20230;-70
2021/03/07 06:00:52;;;;;;;6.50;4.20;;;;;;;12.78;34.49;101336.74;1732900;83;21221;-69
2021/03/07 06:03:25;;;;;;;6.05;3.95;;;;;;;13.06;33.31;101341.11;1734317;83;21177;-69
2021/03/07 06:05:59;;;;;;;4.42;3.15;;;;;;;13.18;32.68;101331.72;1733079;83;21280;-67
2021/03/07 06:08:32;;;;;;;9.63;5.65;;;;;;;13.40;32.59;101329.45;1734719;83;21122;-70
2021/03/07 06:11:06;;;;;;;6.33;3.50;;;;;;;13.60;31.77;101328.63;1732970;83;21273;-69
2021/03/07 06:13:43;;;;;;;5.78;3.72;;;;;;;13.71;31.24;101326.42;1734707;83;21264;-70
2021/03/07 06:16:16;;;;;;;5.25;3.58;;;;;;;13.86;31.64;101311.45;1732922;83;21225;-70
2021/03/07 06:18:50;;;;;;;;;;;;;;;14.24;31.08;101326.57;1737013;83;21158;-70
2021/03/07 06:21:33;;;;;;;7.78;4.03;;;;;;;14.22;31.04;101316.66;1733108;83;20226;-68
2021/03/07 06:24:07;;;;;;;8.43;4.40;;;;;;;14.07;30.66;101316.66;1734154;83;21730;-70
2021/03/07 06:26:41;;;;;;;6.55;4.65;;;;;;;14.44;30.35;101316.48;1734563;83;21142;-70
2021/03/07 06:29:14;;;;;;;13.10;8.50;;;;;;;14.37;30.55;101323.27;1734968;83;21249;-71
2021/03/07 06:31:47;;;;;;;9.75;5.70;;;;;;;13.98;30.15;101314.83;1734770;83;21743;-67
2021/03/07 06:34:20;;;;;;;9.75;5.10;;;;;;;13.81;30.12;101311.02;1734013;83;21126;-70
2021/03/07 06:37:05;;;;;;;33.28;16.30;;;;;;;14.07;30.44;101304.81;1734585;83;21253;-70
2021/03/07 06:39:38;;;;;;;15.63;8.55;;;;;;;14.03;29.89;101306.90;1734509;83;21261;-68
2021/03/07 06:42:11;;;;;;;32.57;13.63;;;;;;;14.08;28.87;101302.06;1734674;83;21137;-70
2021/03/07 06:45:00;;;;;;;28.65;12.03;;;;;;;13.75;28.79;101299.70;1733867;83;21284;-71
2021/03/07 06:47:33;;;;;;;24.82;11.12;;;;;;;13.69;29.42;101304.64;1734872;83;21166;-69
2021/03/07 06:50:13;;;;;;;29.67;13.88;;;;;;;13.86;29.63;101293.03;1713874;83;21162;-70
2021/03/07 06:52:50;;;;;;;27.42;12.95;;;;;;;14.03;29.03;101292.89;1734084;82;21276;-70
2021/03/07 06:55:32;;;;;;;29.70;15.32;;;;;;;13.91;29.08;101288.69;1731785;82;21284;-69
2021/03/07 06:58:18;;;;;;;20.95;11.70;;;;;;;13.26;29.07;101290.33;1731847;81;21169;-69
2021/03/07 07:00:51;;;;;;;8.73;4.33;;;;;;;12.33;29.95;101289.21;1733958;83;21288;-70
2021/03/07 07:03:24;;;;;;;17.92;9.60;;;;;;;11.88;30.33;101279.23;1734692;83;21292;-70
2021/03/07 07:05:57;;;;;;;9.48;5.35;;;;;;;12.34;31.04;101272.52;1734923;82;21276;-69
2021/03/07 07:08:47;;;;;;;7.40;4.17;;;;;;;13.39;30.53;101264.68;1738882;82;21404;-71
2021/03/07 07:11:20;;;;;;;6.47;4.22;;;;;;;14.25;29.00;101259.77;1737829;82;21288;-72
2021/03/07 07:13:53;;;;;;;4.47;3.00;;;;;;;14.83;28.08;101266.79;1739068;82;21165;-70
2021/03/07 07:16:28;;;;;;;14.68;5.08;;;;;;;15.24;27.27;101247.19;1736863;82;21586;-71
2021/03/07 07:19:01;;;;;;;18.70;4.83;;;;;;;15.28;26.81;101243.31;1738901;82;21189;-72
2021/03/07 07:21:35;;;;;;;9.45;5.72;;;;;;;15.52;26.70;101250.77;1737729;82;21280;-72
2021/03/07 07:24:09;;;;;;;5.05;3.72;;;;;;;16.23;26.28;101243.91;1738905;82;21253;-72
2021/03/07 07:26:42;;;;;;;7.45;3.77;;;;;;;17.15;25.23;101242.63;1737945;82;21296;-71
2021/03/07 07:29:16;;;;;;;10.15;4.03;;;;;;;17.53;24.90;101240.08;1716027;82;21261;-69
2021/03/07 07:32:20;;;;;;;3.42;2.80;;;;;;;17.61;24.71;101244.59;1738067;82;21296;-70
2021/03/07 07:34:57;;;;;;;5.22;2.72;;;;;;;17.17;24.10;101239.84;1738533;82;21260;-69
2021/03/07 07:37:43;;;;;;;6.42;3.22;;;;;;;16.58;24.45;101237.36;1737264;82;21339;-68
2021/03/07 07:40:16;;;;;;;9.30;3.83;;;;;;;15.83;24.82;101228.91;1738491;82;21269;-69
2021/03/07 07:43:01;;;;;;;6.12;2.90;;;;;;;15.27;24.89;101234.20;1737278;82;21846;-68
2021/03/07 07:45:35;;;;;;;5.47;2.80;;;;;;;14.15;25.42;101242.63;1729421;82;21290;-70
2021/03/07 07:48:08;;;;;;;5.62;3.72;;;;;;;13.42;26.02;101222.34;1744210;81;21156;-69
2021/03/07 07:50:42;;;;;;;6.28;3.45;;;;;;;12.98;26.53;101226.05;1803515;79;21324;-66
2021/03/07 07:53:26;;;;;;;5.95;3.30;;;;;;;12.48;27.23;101224.13;1788032;77;21237;-67
2021/03/07 07:55:58;;;;;;;3.87;2.60;;;;;;;12.00;27.48;101217.08;1799773;77;21324;-68
2021/03/07 07:58:45;;;;;;;3.75;2.90;;;;;;;11.32;28.17;101225.06;1792818;77;21712;-69
2021/03/07 08:01:24;;;;;;;4.53;3.35;;;;;;;10.93;28.99;101222.82;1791981;77;21197;-70
2021/03/07 08:03:57;;;;;;;5.33;2.65;;;;;;;10.97;29.14;101213.77;1757073;79;21159;-69
2021/03/07 08:06:40;;;;;;;3.52;2.25;;;;;;;11.67;29.00;101210.05;1799796;79;21896;-69
2021/03/07 08:09:38;;;;;;;3.52;1.90;;;;;;;12.85;28.11;101195.16;1765460;81;21166;-69
2021/03/07 08:12:47;;;;;;;6.47;4.75;;;;;;;13.81;26.41;101197.00;1767219;81;22182;-69
2021/03/07 08:15:37;;;;;;;10.48;5.05;;;;;;;13.67;25.29;101181.11;1723624;82;21347;-68
2021/03/07 08:18:10;;;;;;;6.28;3.00;;;;;;;12.45;25.76;101182.34;1721824;82;21218;-67
2021/03/07 08:20:48;;;;;;;5.00;2.98;;;;;;;11.58;26.86;101177.16;1723311;82;21294;-69
2021/03/07 08:23:22;;;;;;;3.67;2.08;;;;;;;11.41;27.60;101160.95;1714514;82;21165;-72
2021/03/07 08:25:57;;;;;;;4.15;2.35;;;;;;;11.64;27.59;101160.45;1736793;82;21282;-68
2021/03/07 08:28:35;;;;;;;3.60;2.25;;;;;;;11.32;27.73;101160.84;1728335;82;21262;-69
2021/03/07 08:31:12;;;;;;;4.35;2.50;;;;;;;10.73;27.78;101165.37;1739987;82;21231;-69
2021/03/07 08:33:45;;;;;;;3.27;1.98;;;;;;;10.45;28.40;101159.20;1729841;82;21289;-70
2021/03/07 08:36:26;;;;;;;4.33;2.08;;;;;;;11.28;28.80;101150.20;1726866;82;21187;-70
2021/03/07 08:39:04;;;;;;;3.95;2.12;;;;;;;12.20;27.90;101153.33;1737288;82;21334;-71
2021/03/07 08:41:41;;;;;;;5.25;2.40;;;;;;;12.90;26.83;101135.17;1721931;82;21337;-71
2021/03/07 08:44:16;;;;;;;5.37;1.90;;;;;;;13.61;26.41;101134.77;1738734;82;21214;-71
2021/03/07 08:46:49;;;;;;;2.17;1.67;;;;;;;14.36;24.80;101118.74;1718234;80;21286;-70
2021/03/07 08:49:25;;;;;;;4.58;2.00;;;;;;;14.95;23.87;101125.61;1723076;80;21783;-69
2021/03/07 08:52:04;;;;;;;4.90;1.90;;;;;;;15.18;22.87;101117.67;1721326;81;21286;-70
2021/03/07 08:54:38;;;;;;;5.90;2.35;;;;;;;15.22;21.95;101115.08;1725080;80;21258;-70
2021/03/07 08:57:11;;;;;;;5.70;2.60;;;;;;;15.08;21.87;101119.03;1721503;82;21309;-69
2021/03/07 08:59:47;;;;;;;3.50;2.55;;;;;;;15.05;22.02;101117.98;1731836;80;21784;-70
2021/03/07 09:02:19;;;;;;;6.60;4.17;;;;;;;14.97;22.38;101106.52;1725491;80;21345;-68
2021/03/07 09:04:53;;;;;;;10.48;6.85;;;;;;;14.77;21.48;101116.27;1719697;80;21261;-73
2021/03/07 09:07:33;;;;;;;6.33;2.90;;;;;;;14.41;21.11;101094.13;1732521;81;21368;-68
2021/03/07 09:10:08;;;;;;;5.90;3.50;;;;;;;14.23;21.91;101095.79;1774896;77;21368;-69
2021/03/07 09:12:43;;;;;;;3.15;2.47;;;;;;;14.06;21.69;101107.01;1757083;78;21310;-68
2021/03/07 09:15:17;;;;;;;6.87;2.35;;;;;;;13.79;22.19;101107.66;1767595;78;21198;-66
2021/03/07 09:17:52;;;;;;;3.42;2.27;;;;;;;13.47;22.74;101112.28;1770272;78;21254;-68
2021/03/07 09:20:40;;;;;;;;;;;;;;;13.23;22.73;101100.77;1785842;78;21856;-68
2021/03/07 09:23:35;;;;;;;2.30;1.92;;;;;;;13.08;23.23;101094.23;1789918;79;20327;-67
2021/03/07 09:26:20;;;;;;;5.17;2.42;;;;;;;12.79;22.50;101096.67;1790403;78;21284;-70
2021/03/07 09:28:59;;;;;;;;;;;;;;;12.30;23.68;101096.97;1740434;80;21284;-69
2021/03/07 09:31:36;;;;;;;4.97;2.52;;;;;;;12.10;24.31;101092.88;1775111;78;20271;-71
2021/03/07 09:34:10;;;;;;;6.60;2.10;;;;;;;12.13;24.80;101081.30;1786274;78;22116;-69
2021/03/07 09:36:43;;;;;;;2.83;1.72;;;;;;;12.03;24.03;101070.72;1786326;79;21298;-69
2021/03/07 09:39:16;;;;;;;4.15;1.90;;;;;;;11.91;24.71;101066.94;1779648;79;21845;-70
2021/03/07 09:41:52;;;;;;;4.03;1.72;;;;;;;11.72;23.78;101050.55;1711699;81;21197;-70
2021/03/07 09:44:25;;;;;;;2.47;1.62;;;;;;;11.21;24.54;101059.91;1731153;82;21951;-69
2021/03/07 09:46:59;;;;;;;3.45;2.05;;;;;;;10.68;25.51;101063.58;1729750;82;21392;-69
2021/03/07 09:49:32;;;;;;;7.77;3.63;;;;;;;10.35;26.21;101053.52;1719341;80;21314;-69
2021/03/07 09:52:05;;;;;;;3.70;2.17;;;;;;;10.32;27.02;101053.27;1728790;81;21301;-68
2021/03/07 09:54:41;;;;;;;5.17;3.87;;;;;;;10.31;27.10;101039.00;1732542;82;22204;-69
2021/03/07 09:57:14;;;;;;;5.67;3.10;;;;;;;10.20;28.17;101032.44;1782310;77;21821;-68
2021/03/07 09:59:52;;;;;;;4.05;2.20;;;;;;;10.17;27.88;101026.12;1746670;80;21333;-68
2021/03/07 10:02:29;;;;;;;4.40;2.90;;;;;;;10.05;28.19;101026.53;1773396;79;21170;-68
2021/03/07 10:05:12;;;;;;;3.62;2.00;;;;;;;9.89;28.51;101029.43;1783568;79;21338;-69
2021/03/07 10:07:45;;;;;;;9.28;4.65;;;;;;;9.73;28.72;101024.97;1782262;79;21357;-68
2021/03/07 10:10:26;;;;;;;7.55;4.15;;;;;;;9.50;28.38;101015.36;1783521;79;21234;-69
2021/03/07 10:12:59;;;;;;;10.78;5.78;;;;;;;9.32;28.89;101012.73;1791191;80;21360;-67
2021/03/07 10:15:38;;;;;;;5.80;3.10;;;;;;;9.03;28.67;101009.58;1792362;80;21329;-68
2021/03/07 10:18:17;;;;;;;6.15;2.47;;;;;;;8.50;28.77;101008.06;1790698;80;21191;-69
2021/03/07 10:20:52;;;;;;;3.85;2.10;;;;;;;8.06;29.68;101009.73;1787062;79;21275;-67
2021/03/07 10:23:31;;;;;;;3.08;1.85;;;;;;;7.85;30.07;100998.12;1813994;77;21743;-68
2021/03/07 10:26:06;;;;;;;3.72;2.10;;;;;;;7.64;30.06;100996.08;1810740;78;21302;-68
2021/03/07 10:28:39;;;;;;;4.20;2.42;;;;;;;7.31;30.66;100992.54;1766788;81;21172;-70
2021/03/07 10:31:14;;;;;;;2.40;1.73;;;;;;;7.01;31.44;100982.77;1775281;79;21266;-68
2021/03/07 10:33:49;;;;;;;5.42;2.92;;;;;;;6.69;31.58;100987.34;1802826;77;21259;-68
2021/03/07 10:36:23;;;;;;;6.12;2.70;;;;;;;6.38;33.03;100981.02;1740775;80;21534;-71
2021/03/07 10:39:14;;;;;;;3.87;2.50;;;;;;;6.21;33.68;100966.91;1787805;79;21264;-74
2021/03/07 10:41:46;;;;;;;4.15;2.12;;;;;;;6.11;33.87;100955.73;1791495;79;21299;-70
2021/03/07 10:44:27;;;;;;;3.87;2.10;;;;;;;6.09;33.91;100933.35;1792691;79;21192;-70
2021/03/07 10:47:20;;;;;;;7.55;2.77;;;;;;;6.05;33.85;100941.81;1799270;79;21280;-70
2021/03/07 10:49:53;;;;;;;6.65;3.22;;;;;;;6.04;34.68;100940.12;1777398;80;21359;-72
2021/03/07 10:52:28;;;;;;;4.95;1.67;;;;;;;6.04;34.69;100925.83;1801848;77;21711;-71
2021/03/07 10:55:01;;;;;;;3.55;2.10;;;;;;;5.94;33.97;100918.69;1795806;77;21271;-69
2021/03/07 10:57:35;;;;;;;6.62;2.60;;;;;;;5.80;34.08;100909.54;1807562;77;21774;-72
2021/03/07 11:00:09;;;;;;;5.72;2.80;;;;;;;5.71;34.09;100906.19;1800455;79;21239;-69
2021/03/07 11:02:46;;;;;;;4.83;2.20;;;;;;;5.57;34.44;100896.58;1790288;79;21290;-71
2021/03/07 11:05:21;;;;;;;9.05;3.25;;;;;;;5.49;33.92;100877.18;1777951;80;21326;-71
2021/03/07 11:07:54;;;;;;;4.00;2.40;;;;;;;5.34;34.52;100885.39;1788115;79;21283;-72
2021/03/07 11:10:28;;;;;;;4.45;2.50;;;;;;;5.28;35.52;100874.03;1803592;79;21749;-71
2021/03/07 11:13:01;;;;;;;7.08;3.47;;;;;;;5.25;35.30;100878.13;1783251;78;21730;-71
2021/03/07 11:15:36;;;;;;;6.50;2.50;;;;;;;5.16;34.93;100863.08;1713189;83;21788;-71
2021/03/07 11:18:09;;;;;;;5.85;2.50;;;;;;;5.10;36.03;100859.06;1766927;79;21313;-71
2021/03/07 11:20:43;;;;;;;5.80;2.83;;;;;;;5.08;36.33;100860.91;1791882;79;21384;-71
2021/03/07 11:23:17;;;;;;;3.20;1.97;;;;;;;5.01;36.59;100843.17;1795339;80;21170;-70
2021/03/07 11:25:50;;;;;;;6.70;2.40;;;;;;;4.90;36.88;100854.14;1784839;79;21191;-70
2021/03/07 11:28:23;;;;;;;8.30;3.60;;;;;;;4.86;36.62;100850.52;1776702;79;21288;-72
2021/03/07 11:30:56;;;;;;;4.17;2.45;;;;;;;4.78;37.04;100852.72;1781698;79;21330;-72
2021/03/07 11:33:29;;;;;;;4.17;2.15;;;;;;;4.75;36.95;100853.72;1754740;81;21219;-70
2021/03/07 11:36:07;;;;;;;3.12;1.77;;;;;;;4.73;36.75;100852.94;1772502;79;21966;-70
2021/03/07 11:38:41;;;;;;;4.62;2.42;;;;;;;4.61;36.65;100838.05;1774168;79;21231;-72
2021/03/07 11:41:14;;;;;;;4.43;2.07;;;;;;;4.45;36.76;100824.26;1785154;79;21899;-68
2021/03/07 11:43:47;;;;;;;4.90;2.08;;;;;;;4.28;36.86;100823.03;1760840;81;21318;-72
2021/03/07 11:46:20;;;;;;;5.50;2.37;;;;;;;4.17;37.51;100821.04;1756299;81;21334;-71
2021/03/07 11:48:54;;;;;;;3.70;2.20;;;;;;;4.15;38.07;100824.63;1748562;82;21334;-72
2021/03/07 11:51:27;;;;;;;5.53;2.37;;;;;;;4.12;38.55;100828.67;1774475;78;22780;-72
2021/03/07 11:54:02;;;;;;;6.05;2.47;;;;;;;4.10;38.60;100819.69;1791639;79;21688;-71
2021/03/07 11:56:35;;;;;;;7.75;3.50;;;;;;;4.14;39.24;100824.23;1776802;79;21196;-72
2021/03/07 11:59:09;;;;;;;6.37;2.55;;;;;;;4.23;39.21;100809.03;1774660;78;21321;-73
2021/03/07 12:01:43;;;;;;;5.55;3.10;;;;;;;4.28;39.35;100803.59;1774332;78;21298;-72
2021/03/07 12:04:16;;;;;;;4.83;2.98;;;;;;;4.32;40.16;100808.56;1796573;79;21246;-72